createdAt,value
2022-08-14T00:00:51.874Z,58.55
2022-08-14T00:01:55.413Z,58.55
2022-08-14T00:02:52.521Z,58.55
2022-08-14T00:03:53.339Z,58.65
2022-08-14T00:04:53.062Z,59.25
2022-08-14T00:05:59.941Z,59.25
2022-08-14T00:06:54.601Z,59.18
2022-08-14T00:07:53.878Z,59.38
2022-08-14T00:08:54.139Z,59.38
2022-08-14T00:10:50.231Z,59.18
2022-08-14T00:10:55.703Z,59.28
2022-08-14T00:11:54.983Z,59.18
2022-08-14T00:12:56.808Z,59.68
2022-08-14T00:13:55.616Z,60.38
2022-08-14T00:14:55.963Z,60.08
2022-08-14T00:15:56.210Z,60.68
2022-08-14T00:16:56.424Z,61.91
2022-08-14T00:17:56.773Z,61.51
2022-08-14T00:19:05.516Z,61.81
2022-08-14T00:19:58.381Z,62.21
2022-08-14T00:20:57.665Z,63.14
2022-08-14T00:21:57.844Z,63.54
2022-08-14T00:22:58.582Z,66.35
2022-08-14T00:24:01.671Z,63.57
2022-08-14T00:24:58.676Z,65.18
2022-08-14T00:26:06.753Z,64.37
2022-08-14T00:27:02.181Z,64.48
2022-08-14T00:27:59.512Z,64.40
2022-08-14T00:28:59.865Z,65.31
2022-08-14T00:30:00.080Z,65.41
2022-08-14T00:31:00.365Z,66.21
2022-08-14T00:32:00.584Z,67.92
2022-08-14T00:33:14.549Z,66.35
2022-08-14T00:34:36.626Z,66.64
2022-08-14T00:35:02.387Z,65.64
2022-08-14T00:36:36.429Z,68.85
2022-08-14T00:37:02.918Z,65.64
2022-08-14T00:38:02.255Z,66.67
2022-08-14T00:39:02.596Z,67.98
2022-08-14T00:40:02.829Z,67.68
2022-08-14T00:41:04.031Z,68.88
2022-08-14T00:42:03.386Z,67.58
2022-08-14T00:43:04.003Z,66.67
2022-08-14T00:44:03.994Z,68.79
2022-08-14T00:45:04.335Z,68.82
2022-08-14T00:46:05.157Z,68.41
2022-08-14T00:47:04.998Z,69.12
2022-08-14T00:48:05.290Z,68.41
2022-08-14T00:49:05.616Z,69.02
2022-08-14T00:50:05.925Z,67.61
2022-08-14T00:51:06.155Z,69.42
2022-08-14T00:52:06.455Z,68.25
2022-08-14T00:53:06.693Z,67.85
2022-08-14T00:54:16.788Z,68.55
2022-08-14T00:55:08.281Z,68.45
2022-08-14T00:56:08.430Z,67.24
2022-08-14T00:57:07.777Z,69.85
2022-08-14T00:58:08.091Z,69.35
2022-08-14T00:59:08.371Z,69.65
2022-08-14T01:00:34.244Z,69.45
2022-08-14T01:01:10.057Z,69.76
2022-08-14T01:02:09.695Z,70.16
2022-08-14T01:03:09.671Z,68.55
2022-08-14T01:04:09.823Z,71.16
2022-08-14T01:05:11.116Z,70.06
2022-08-14T01:06:10.400Z,70.26
2022-08-14T01:07:10.690Z,70.70
2022-08-14T01:08:50.657Z,69.99
2022-08-14T01:09:12.376Z,69.59
2022-08-14T01:10:11.574Z,71.20
2022-08-14T01:11:11.919Z,70.59
2022-08-14T01:12:13.179Z,70.19
2022-08-14T01:13:13.528Z,70.59
2022-08-14T01:14:25.322Z,70.89
2022-08-14T01:15:14.698Z,71.80
2022-08-14T01:16:13.957Z,72.30
2022-08-14T01:17:13.536Z,71.20
2022-08-14T01:18:13.858Z,71.70
2022-08-14T01:19:14.151Z,72.10
2022-08-14T01:20:27.671Z,72.47
2022-08-14T01:21:15.748Z,72.87
2022-08-14T01:22:18.932Z,72.33
2022-08-14T01:23:16.759Z,72.13
2022-08-14T01:24:24.708Z,72.10
2022-08-14T01:25:16.850Z,71.47
2022-08-14T01:26:16.613Z,71.06
2022-08-14T01:27:17.432Z,70.93
2022-08-14T01:28:46.470Z,70.09
2022-08-14T01:29:52.000Z,69.56
2022-08-14T01:30:20.997Z,68.96
2022-08-14T01:31:17.581Z,68.73
2022-08-14T01:32:22.777Z,68.52
2022-08-14T01:33:19.174Z,68.32
2022-08-14T01:35:18.200Z,68.32
2022-08-14T01:36:03.776Z,68.12
2022-08-14T01:36:21.047Z,68.02
2022-08-14T01:37:19.380Z,68.02
2022-08-14T01:38:19.619Z,68.02
2022-08-14T01:39:19.892Z,67.92
2022-08-14T01:40:20.222Z,68.32
2022-08-14T01:41:23.109Z,68.42
2022-08-14T01:42:31.359Z,68.12
2022-08-14T01:43:26.548Z,67.72
2022-08-14T01:44:31.364Z,68.22
2022-08-14T01:45:25.533Z,68.12
2022-08-14T01:46:24.529Z,68.52
2022-08-14T01:47:22.529Z,68.46
2022-08-14T01:48:22.530Z,68.65
2022-08-14T01:49:22.824Z,68.96
2022-08-14T01:50:24.084Z,69.16
2022-08-14T01:51:23.393Z,69.16
2022-08-14T01:52:34.759Z,69.06
2022-08-14T01:53:25.147Z,69.16
2022-08-14T01:54:25.322Z,69.35
2022-08-14T01:55:25.650Z,69.86
2022-08-14T01:56:24.882Z,69.96
2022-08-14T01:57:26.174Z,69.96
2022-08-14T01:58:28.958Z,69.86
2022-08-14T01:59:25.866Z,70.16
2022-08-14T02:00:27.618Z,70.46
2022-08-14T02:01:26.659Z,70.46
2022-08-14T02:02:26.680Z,70.66
2022-08-14T02:03:30.194Z,70.46
2022-08-14T02:04:54.754Z,70.79
2022-08-14T02:05:28.574Z,70.79
2022-08-14T02:06:32.969Z,71.20
2022-08-14T02:07:44.706Z,71.20
2022-08-14T02:08:34.613Z,71.39
2022-08-14T02:09:29.611Z,71.50
2022-08-14T02:10:28.864Z,71.00
2022-08-14T02:11:29.221Z,71.50
2022-08-14T02:12:29.562Z,71.50
2022-08-14T02:13:29.743Z,71.09
2022-08-14T02:14:31.455Z,71.00
2022-08-14T02:15:30.296Z,71.50
2022-08-14T02:16:30.643Z,70.93
2022-08-14T02:17:31.067Z,71.63
2022-08-14T02:18:32.735Z,71.53
2022-08-14T02:19:31.738Z,72.03
2022-08-14T02:20:31.755Z,71.53
2022-08-14T02:21:32.100Z,72.27
2022-08-14T02:22:34.011Z,72.47
2022-08-14T02:23:32.658Z,72.56
2022-08-14T02:24:39.130Z,72.47
2022-08-14T02:25:34.198Z,73.27
2022-08-14T02:26:33.454Z,73.00
2022-08-14T02:28:22.504Z,72.71
2022-08-14T02:28:57.584Z,73.81
2022-08-14T02:30:00.502Z,73.10
2022-08-14T02:30:35.577Z,74.21
2022-08-14T02:31:42.654Z,74.51
2022-08-14T02:32:37.213Z,74.55
2022-08-14T02:33:39.069Z,74.85
2022-08-14T02:34:36.281Z,75.55
2022-08-14T02:35:40.863Z,74.85
2022-08-14T02:37:02.410Z,73.94
2022-08-14T02:37:47.509Z,74.65
2022-08-14T02:38:37.735Z,74.65
2022-08-14T02:39:37.467Z,74.55
2022-08-14T02:40:37.257Z,75.55
2022-08-14T02:41:39.890Z,75.75
2022-08-14T02:42:37.891Z,75.82
2022-08-14T02:43:46.238Z,75.71
2022-08-14T02:44:40.008Z,75.18
2022-08-14T02:45:44.758Z,74.34
2022-08-14T02:46:41.216Z,73.74
2022-08-14T02:47:39.524Z,73.33
2022-08-14T02:49:04.364Z,73.24
2022-08-14T02:49:41.047Z,73.13
2022-08-14T02:50:40.360Z,73.54
2022-08-14T02:51:40.680Z,74.14
2022-08-14T02:52:55.845Z,74.34
2022-08-14T02:53:42.551Z,74.04
2022-08-14T02:54:41.528Z,74.64
2022-08-14T02:55:41.821Z,73.97
2022-08-14T02:57:14.407Z,74.48
2022-08-14T02:57:43.442Z,74.27
2022-08-14T02:58:42.700Z,74.68
2022-08-14T02:59:43.336Z,74.57
2022-08-14T03:00:43.359Z,75.48
2022-08-14T03:01:51.047Z,75.27
2022-08-14T03:02:56.748Z,75.08
2022-08-14T03:03:45.129Z,74.74
2022-08-14T03:04:44.373Z,74.54
2022-08-14T03:05:44.688Z,74.34
2022-08-14T03:06:58.304Z,73.90
2022-08-14T03:07:46.279Z,73.80
2022-08-14T03:08:46.647Z,74.01
2022-08-14T03:10:27.827Z,74.01
2022-08-14T03:10:49.217Z,73.90
2022-08-14T03:11:46.513Z,74.01
2022-08-14T03:12:46.792Z,74.01
2022-08-14T03:13:47.125Z,73.60
2022-08-14T03:14:47.292Z,73.20
2022-08-14T03:15:47.640Z,73.64
2022-08-14T03:16:49.350Z,73.54
2022-08-14T03:17:57.159Z,74.14
2022-08-14T03:18:52.582Z,74.44
2022-08-14T03:19:48.743Z,74.37
2022-08-14T03:20:49.004Z,75.18
2022-08-14T03:21:52.959Z,74.77
2022-08-14T03:22:50.956Z,75.58
2022-08-14T03:23:49.863Z,75.38
2022-08-14T03:24:50.034Z,76.12
2022-08-14T03:25:50.283Z,76.02
2022-08-14T03:26:57.424Z,75.71
2022-08-14T03:27:59.080Z,75.11
2022-08-14T03:28:52.215Z,74.81
2022-08-14T03:29:51.485Z,74.71
2022-08-14T03:30:51.714Z,76.15
2022-08-14T03:31:51.985Z,75.55
2022-08-14T03:32:52.252Z,76.25
2022-08-14T03:33:54.254Z,76.76
2022-08-14T03:34:55.644Z,76.15
2022-08-14T03:36:05.148Z,76.79
2022-08-14T03:37:39.282Z,77.50
2022-08-14T03:39:13.230Z,78.00
2022-08-14T03:39:13.948Z,77.80
2022-08-14T03:39:55.234Z,77.70
2022-08-14T03:40:54.456Z,77.80
2022-08-14T03:41:54.777Z,78.00
2022-08-14T03:42:55.024Z,78.64
2022-08-14T03:43:57.139Z,78.44
2022-08-14T03:45:19.171Z,78.84
2022-08-14T03:45:56.902Z,79.24
2022-08-14T03:46:56.331Z,79.54
2022-08-14T03:48:01.618Z,79.44
2022-08-14T03:48:57.737Z,79.35
2022-08-14T03:49:58.255Z,79.35
2022-08-14T03:50:57.229Z,79.54
2022-08-14T03:51:58.159Z,78.94
2022-08-14T03:53:00.479Z,79.44
2022-08-14T03:53:58.065Z,79.24
2022-08-14T03:54:58.236Z,79.94
2022-08-14T03:55:58.535Z,79.74
2022-08-14T03:56:58.807Z,80.25
2022-08-14T03:58:00.595Z,80.25
2022-08-14T03:58:59.428Z,79.64
2022-08-14T03:59:59.664Z,80.55
2022-08-14T04:00:59.939Z,80.25
2022-08-14T04:02:02.311Z,79.85
2022-08-14T04:03:00.391Z,79.41
2022-08-14T04:04:00.703Z,78.90
2022-08-14T04:05:12.113Z,78.56
2022-08-14T04:06:02.299Z,78.27
2022-08-14T04:07:01.630Z,77.96
2022-08-14T04:08:22.965Z,77.42
2022-08-14T04:09:03.289Z,77.02
2022-08-14T04:10:02.873Z,77.22
2022-08-14T04:11:08.034Z,77.02
2022-08-14T04:12:04.146Z,76.92
2022-08-14T04:13:04.244Z,76.72
2022-08-14T04:14:03.879Z,76.82
2022-08-14T04:15:04.139Z,77.32
2022-08-14T04:16:05.091Z,77.42
2022-08-14T04:17:04.686Z,77.12
2022-08-14T04:18:06.020Z,76.92
2022-08-14T04:19:05.380Z,77.12
2022-08-14T04:20:05.566Z,76.86
2022-08-14T04:21:05.880Z,77.56
2022-08-14T04:22:06.274Z,77.26
2022-08-14T04:23:06.470Z,76.96
2022-08-14T04:24:07.778Z,76.86
2022-08-14T04:25:07.008Z,77.36
2022-08-14T04:26:08.311Z,77.16
2022-08-14T04:27:07.641Z,77.86
2022-08-14T04:28:07.877Z,77.39
2022-08-14T04:29:16.189Z,77.39
2022-08-14T04:30:09.468Z,77.00
2022-08-14T04:31:09.793Z,77.29
2022-08-14T04:32:59.246Z,77.39
2022-08-14T04:33:17.068Z,77.50
2022-08-14T04:34:20.794Z,77.59
2022-08-14T04:35:11.210Z,77.50
2022-08-14T04:36:10.259Z,77.90
2022-08-14T04:37:11.549Z,79.00
2022-08-14T04:38:36.773Z,79.41
2022-08-14T04:39:12.243Z,79.21
2022-08-14T04:40:11.392Z,79.14
2022-08-14T04:41:11.600Z,79.35
2022-08-14T04:42:12.296Z,78.74
2022-08-14T04:43:14.387Z,79.14
2022-08-14T04:44:35.896Z,79.44
2022-08-14T04:45:13.803Z,78.94
2022-08-14T04:46:56.472Z,78.44
2022-08-14T04:47:14.448Z,78.03
2022-08-14T04:48:13.794Z,78.44
2022-08-14T04:49:16.041Z,78.54
2022-08-14T04:50:14.319Z,78.64
2022-08-14T04:51:14.508Z,78.14
2022-08-14T04:52:15.426Z,78.30
2022-08-14T04:53:15.073Z,78.30
2022-08-14T04:54:17.245Z,79.00
2022-08-14T04:55:15.705Z,79.30
2022-08-14T04:56:30.975Z,79.00
2022-08-14T04:57:17.232Z,79.10
2022-08-14T04:58:21.445Z,79.10
2022-08-14T04:59:17.793Z,79.30
2022-08-14T05:00:18.183Z,79.71
2022-08-14T05:01:17.866Z,79.61
2022-08-14T05:02:17.742Z,79.50
2022-08-14T05:03:17.936Z,79.27
2022-08-14T05:04:19.984Z,79.17
2022-08-14T05:05:18.484Z,78.97
2022-08-14T05:06:37.360Z,78.86
2022-08-14T05:07:20.062Z,78.33
2022-08-14T05:08:32.099Z,78.22
2022-08-14T05:09:20.595Z,78.12
2022-08-14T05:10:21.985Z,78.12
2022-08-14T05:11:20.130Z,77.83
2022-08-14T05:13:11.257Z,77.72
2022-08-14T05:13:24.600Z,77.83
2022-08-14T05:14:45.928Z,78.12
2022-08-14T05:15:22.154Z,78.42
2022-08-14T05:16:21.484Z,78.63
2022-08-14T05:17:21.717Z,78.42
2022-08-14T05:19:16.798Z,78.42
2022-08-14T05:19:27.363Z,78.09
2022-08-14T05:21:56.200Z,76.07
2022-08-14T05:21:57.671Z,77.55
2022-08-14T05:22:24.201Z,74.63
2022-08-14T05:23:23.404Z,73.60
2022-08-14T05:24:23.657Z,73.50
2022-08-14T05:25:23.928Z,74.13
2022-08-14T05:26:24.145Z,74.87
2022-08-14T05:27:24.358Z,74.43
2022-08-14T05:28:24.727Z,72.13
2022-08-14T05:29:25.019Z,70.36
2022-08-14T05:30:25.246Z,68.46
2022-08-14T05:31:30.192Z,66.50
2022-08-14T05:32:27.395Z,64.31
2022-08-14T05:33:26.157Z,62.43
2022-08-14T05:34:28.757Z,60.98
2022-08-14T05:35:27.649Z,59.38
2022-08-14T05:36:27.244Z,56.52
2022-08-14T05:37:27.973Z,54.56
2022-08-14T05:38:31.866Z,52.39
2022-08-14T05:39:28.175Z,52.95
2022-08-14T05:40:28.087Z,53.28
2022-08-14T05:41:52.535Z,53.45
2022-08-14T05:42:34.132Z,53.80
2022-08-14T05:43:40.687Z,53.99
2022-08-14T05:44:30.747Z,54.17
2022-08-14T05:45:29.561Z,54.39
2022-08-14T05:46:29.754Z,53.25
2022-08-14T05:47:38.901Z,52.14
2022-08-14T05:48:33.885Z,52.14
2022-08-14T05:49:33.057Z,52.14
2022-08-14T05:50:31.002Z,52.66
2022-08-14T05:51:31.697Z,53.50
2022-08-14T05:52:39.203Z,54.32
2022-08-14T05:53:34.382Z,53.75
2022-08-14T05:54:35.590Z,52.76
2022-08-14T05:55:32.664Z,53.38
2022-08-14T05:56:32.785Z,53.97
2022-08-14T05:57:33.020Z,52.28
2022-08-14T05:58:33.834Z,50.29
2022-08-14T05:59:38.636Z,47.34
2022-08-14T06:00:37.071Z,44.82
2022-08-14T06:01:35.392Z,46.78
2022-08-14T06:02:34.575Z,47.05
2022-08-14T06:03:34.785Z,45.68
2022-08-14T06:04:35.096Z,44.23
2022-08-14T06:05:35.364Z,42.11
2022-08-14T06:06:38.452Z,41.19
2022-08-14T06:07:35.866Z,40.89
2022-08-14T06:08:41.612Z,40.86
2022-08-14T06:09:40.584Z,39.84
2022-08-14T06:10:36.656Z,39.26
2022-08-14T06:11:37.857Z,39.34
2022-08-14T06:12:56.543Z,37.72
2022-08-14T06:13:44.566Z,37.59
2022-08-14T06:14:38.926Z,36.34
2022-08-14T06:15:38.168Z,38.64
2022-08-14T06:16:38.498Z,38.13
2022-08-14T06:17:46.144Z,37.43
2022-08-14T06:18:40.165Z,36.99
2022-08-14T06:19:40.300Z,36.50
2022-08-14T06:20:40.003Z,35.69
2022-08-14T06:21:40.619Z,36.19
2022-08-14T06:22:40.383Z,36.16
2022-08-14T06:23:40.615Z,35.07
2022-08-14T06:24:44.004Z,34.86
2022-08-14T06:25:41.190Z,34.63
2022-08-14T06:26:41.484Z,34.21
2022-08-14T06:27:42.787Z,33.97
2022-08-14T06:28:45.469Z,36.06
2022-08-14T06:29:42.383Z,35.74
2022-08-14T06:30:47.234Z,37.45
2022-08-14T06:31:42.920Z,37.43
2022-08-14T06:32:43.181Z,38.38
2022-08-14T06:35:01.289Z,39.18
2022-08-14T06:35:03.559Z,38.87
2022-08-14T06:35:46.771Z,39.90
2022-08-14T06:36:44.328Z,39.47
2022-08-14T06:37:44.613Z,39.47
2022-08-14T06:38:44.844Z,38.64
2022-08-14T06:39:45.198Z,38.13
2022-08-14T06:40:45.850Z,37.10
2022-08-14T06:41:59.474Z,36.10
2022-08-14T06:42:49.411Z,36.19
2022-08-14T06:43:46.162Z,36.83
2022-08-14T06:44:46.501Z,37.34
2022-08-14T06:45:50.069Z,38.21
2022-08-14T06:46:49.381Z,37.30
2022-08-14T06:47:47.325Z,36.27
2022-08-14T06:48:47.595Z,36.83
2022-08-14T06:49:55.957Z,37.66
2022-08-14T06:50:49.247Z,39.57
2022-08-14T06:51:49.898Z,39.86
2022-08-14T06:52:50.133Z,38.65
2022-08-14T06:53:49.047Z,38.05
2022-08-14T06:54:49.393Z,37.41
2022-08-14T06:55:57.951Z,36.60
2022-08-14T06:56:54.144Z,35.78
2022-08-14T06:57:50.144Z,36.60
2022-08-14T06:58:50.381Z,36.11
2022-08-14T06:59:50.709Z,36.93
2022-08-14T07:00:51.040Z,38.48
2022-08-14T07:01:51.292Z,39.16
2022-08-14T07:02:52.498Z,38.64
2022-08-14T07:03:51.716Z,38.05
2022-08-14T07:04:51.975Z,38.85
2022-08-14T07:05:58.247Z,37.52
2022-08-14T07:06:55.574Z,37.74
2022-08-14T07:07:52.903Z,39.76
2022-08-14T07:08:53.279Z,39.12
2022-08-14T07:09:53.642Z,37.52
2022-08-14T07:10:53.816Z,38.21
2022-08-14T07:11:54.115Z,37.47
2022-08-14T07:13:04.095Z,35.35
2022-08-14T07:13:55.745Z,35.23
2022-08-14T07:15:01.165Z,34.70
2022-08-14T07:15:56.319Z,33.37
2022-08-14T07:16:55.540Z,32.07
2022-08-14T07:17:55.821Z,30.80
2022-08-14T07:18:56.211Z,32.96
2022-08-14T07:19:56.658Z,34.57
2022-08-14T07:20:56.747Z,35.23
2022-08-14T07:21:57.011Z,34.31
2022-08-14T07:22:57.316Z,33.44
2022-08-14T07:23:57.582Z,34.15
2022-08-14T07:24:57.841Z,36.30
2022-08-14T07:25:58.283Z,37.92
2022-08-14T07:26:58.291Z,37.60
2022-08-14T07:27:58.543Z,37.34
2022-08-14T07:28:58.884Z,34.96
2022-08-14T07:29:59.193Z,34.81
2022-08-14T07:31:05.248Z,34.19
2022-08-14T07:32:00.762Z,36.79
2022-08-14T07:33:00.068Z,35.94
2022-08-14T07:34:00.335Z,34.71
2022-08-14T07:35:00.560Z,33.09
2022-08-14T07:36:00.804Z,31.56
2022-08-14T07:37:01.607Z,31.13
2022-08-14T07:38:01.314Z,30.35
2022-08-14T07:39:03.597Z,29.47
2022-08-14T07:40:03.029Z,29.17
2022-08-14T07:41:02.223Z,30.63
2022-08-14T07:42:02.454Z,32.52
2022-08-14T07:43:14.350Z,32.81
2022-08-14T07:44:29.511Z,32.04
2022-08-14T07:45:04.456Z,33.73
2022-08-14T07:46:03.746Z,35.59
2022-08-14T07:47:04.037Z,37.95
2022-08-14T07:48:04.291Z,39.31
2022-08-14T07:49:04.574Z,37.47
2022-08-14T07:50:04.917Z,35.67
2022-08-14T07:51:10.679Z,36.19
2022-08-14T07:52:06.458Z,35.98
2022-08-14T07:53:05.663Z,36.60
2022-08-14T07:54:06.919Z,34.28
2022-08-14T07:55:08.185Z,31.99
2022-08-14T07:56:09.151Z,31.69
2022-08-14T07:57:12.690Z,31.46
2022-08-14T07:58:30.279Z,30.25
2022-08-14T07:59:09.139Z,29.56
2022-08-14T08:00:07.877Z,28.77
2022-08-14T08:01:08.095Z,28.24
2022-08-14T08:02:08.383Z,28.33
2022-08-14T08:03:09.718Z,28.31
2022-08-14T08:04:16.707Z,27.44
2022-08-14T08:05:10.244Z,27.05
2022-08-14T08:06:10.478Z,28.56
2022-08-14T08:07:10.678Z,28.48
2022-08-14T08:08:27.239Z,29.75
2022-08-14T08:09:11.311Z,29.05
2022-08-14T08:10:10.613Z,28.24
2022-08-14T08:11:15.038Z,28.80
2022-08-14T08:12:14.260Z,27.91
2022-08-14T08:13:11.429Z,27.12
2022-08-14T08:14:17.518Z,26.33
2022-08-14T08:15:13.142Z,26.24
2022-08-14T08:16:12.329Z,26.63
2022-08-14T08:17:12.617Z,26.56
2022-08-14T08:18:20.382Z,27.12
2022-08-14T08:19:14.477Z,27.44
2022-08-14T08:20:13.533Z,27.55
2022-08-14T08:21:13.731Z,27.75
2022-08-14T08:22:13.991Z,28.04
2022-08-14T08:23:20.686Z,28.11
2022-08-14T08:24:19.777Z,27.50
2022-08-14T08:25:18.065Z,26.26
2022-08-14T08:26:15.057Z,27.23
2022-08-14T08:27:16.686Z,27.52
2022-08-14T08:28:21.836Z,26.84
2022-08-14T08:29:17.026Z,27.60
2022-08-14T08:30:16.419Z,26.75
2022-08-14T08:31:16.649Z,27.23
2022-08-14T08:32:16.843Z,27.31
2022-08-14T08:33:17.076Z,26.84
2022-08-14T08:34:18.129Z,26.37
2022-08-14T08:35:17.682Z,27.55
2022-08-14T08:36:18.711Z,26.78
2022-08-14T08:37:18.408Z,28.49
2022-08-14T08:39:14.155Z,29.55
2022-08-14T08:39:42.195Z,29.05
2022-08-14T08:40:20.636Z,28.38
2022-08-14T08:41:19.449Z,28.96
2022-08-14T08:42:24.431Z,28.92
2022-08-14T08:43:21.007Z,27.90
2022-08-14T08:44:31.885Z,28.81
2022-08-14T08:45:21.655Z,30.25
2022-08-14T08:46:23.650Z,29.96
2022-08-14T08:47:21.279Z,29.75
2022-08-14T08:48:31.378Z,29.83
2022-08-14T08:49:22.883Z,29.45
2022-08-14T08:50:31.421Z,29.17
2022-08-14T08:51:22.377Z,29.30
2022-08-14T08:52:24.469Z,29.51
2022-08-14T08:53:23.627Z,29.51
2022-08-14T08:54:26.644Z,30.90
2022-08-14T08:55:24.472Z,31.22
2022-08-14T08:56:30.281Z,33.37
2022-08-14T08:57:24.994Z,31.94
2022-08-14T08:58:25.117Z,33.15
2022-08-14T08:59:27.026Z,34.44
2022-08-14T09:00:26.409Z,36.10
2022-08-14T09:01:25.224Z,37.39
2022-08-14T09:02:25.884Z,37.34
2022-08-14T09:03:27.444Z,38.44
2022-08-14T09:04:26.043Z,39.14
2022-08-14T09:05:26.345Z,39.55
2022-08-14T09:07:00.117Z,39.26
2022-08-14T09:07:28.023Z,39.26
2022-08-14T09:08:31.746Z,39.37
2022-08-14T09:09:30.432Z,39.86
2022-08-14T09:10:27.822Z,40.47
2022-08-14T09:11:28.072Z,42.63
2022-08-14T09:12:36.055Z,41.46
2022-08-14T09:13:30.654Z,42.14
2022-08-14T09:14:28.879Z,41.19
2022-08-14T09:15:36.773Z,41.58
2022-08-14T09:16:30.353Z,42.38
2022-08-14T09:17:29.705Z,43.46
2022-08-14T09:18:29.951Z,41.50
2022-08-14T09:19:30.226Z,42.44
2022-08-14T09:20:30.812Z,42.46
2022-08-14T09:21:31.082Z,45.03
2022-08-14T09:22:34.844Z,42.88
2022-08-14T09:23:35.182Z,44.34
2022-08-14T09:24:36.348Z,43.66
2022-08-14T09:26:00.196Z,43.29
2022-08-14T09:26:33.459Z,44.23
2022-08-14T09:27:32.286Z,45.73
2022-08-14T09:28:32.534Z,46.61
2022-08-14T09:29:32.883Z,45.04
2022-08-14T09:30:33.885Z,45.14
2022-08-14T09:31:43.017Z,45.16
2022-08-14T09:32:59.057Z,44.87
2022-08-14T09:33:35.018Z,44.57
2022-08-14T09:34:35.236Z,45.28
2022-08-14T09:35:34.637Z,46.66
2022-08-14T09:36:34.837Z,45.48
2022-08-14T09:37:35.122Z,45.99
2022-08-14T09:38:35.371Z,45.87
2022-08-14T09:39:35.859Z,45.87
2022-08-14T09:40:38.768Z,45.45
2022-08-14T09:42:17.614Z,45.95
2022-08-14T09:42:37.578Z,45.26
2022-08-14T09:43:37.780Z,46.31
2022-08-14T09:44:37.129Z,46.63
2022-08-14T09:45:39.688Z,45.34
2022-08-14T09:46:37.713Z,45.14
2022-08-14T09:47:38.048Z,45.21
2022-08-14T09:48:38.302Z,45.12
2022-08-14T09:49:40.596Z,44.73
2022-08-14T09:50:38.978Z,43.33
2022-08-14T09:51:44.854Z,42.74
2022-08-14T09:52:45.289Z,43.33
2022-08-14T09:54:18.978Z,45.00
2022-08-14T09:54:40.939Z,45.09
2022-08-14T09:55:42.478Z,43.72
2022-08-14T09:56:40.474Z,43.94
2022-08-14T09:57:40.902Z,43.86
2022-08-14T09:58:41.126Z,43.96
2022-08-14T09:59:41.415Z,44.18
2022-08-14T10:00:41.762Z,44.45
2022-08-14T10:01:42.009Z,43.76
2022-08-14T10:02:46.122Z,43.47
2022-08-14T10:03:42.605Z,43.55
2022-08-14T10:04:46.249Z,45.61
2022-08-14T10:05:44.266Z,45.12
2022-08-14T10:06:43.425Z,44.21
2022-08-14T10:07:47.519Z,42.27
2022-08-14T10:08:44.302Z,42.65
2022-08-14T10:09:44.255Z,42.18
2022-08-14T10:10:45.617Z,42.29
2022-08-14T10:11:45.925Z,43.27
2022-08-14T10:12:45.352Z,43.18
2022-08-14T10:13:53.098Z,41.71
2022-08-14T10:14:53.161Z,42.61
2022-08-14T10:15:47.053Z,42.33
2022-08-14T10:16:46.336Z,43.61
2022-08-14T10:17:46.722Z,43.98
2022-08-14T10:18:46.967Z,42.21
2022-08-14T10:19:47.273Z,42.49
2022-08-14T10:20:49.973Z,43.66
2022-08-14T10:23:10.897Z,43.08
2022-08-14T10:23:23.087Z,42.57
2022-08-14T10:23:49.238Z,42.37
2022-08-14T10:24:50.953Z,41.39
2022-08-14T10:25:48.831Z,41.82
2022-08-14T10:26:49.040Z,41.82
2022-08-14T10:27:49.313Z,42.58
2022-08-14T10:29:18.821Z,42.02
2022-08-14T10:29:51.030Z,42.41
2022-08-14T10:30:50.211Z,42.49
2022-08-14T10:31:50.410Z,42.58
2022-08-14T10:32:51.558Z,41.39
2022-08-14T10:33:51.080Z,42.76
2022-08-14T10:34:52.843Z,40.88
2022-08-14T10:35:51.574Z,43.43
2022-08-14T10:36:51.831Z,39.70
2022-08-14T10:37:53.163Z,40.00
2022-08-14T10:38:52.469Z,39.70
2022-08-14T10:40:05.705Z,40.09
2022-08-14T10:40:59.442Z,39.53
2022-08-14T10:41:54.303Z,40.21
2022-08-14T10:42:53.561Z,40.51
2022-08-14T10:43:53.788Z,40.68
2022-08-14T10:44:54.031Z,40.09
2022-08-14T10:46:03.668Z,40.88
2022-08-14T10:47:41.210Z,40.00
2022-08-14T10:48:08.741Z,39.69
2022-08-14T10:48:56.253Z,39.39
2022-08-14T10:49:55.542Z,40.76
2022-08-14T10:50:55.935Z,40.76
2022-08-14T10:51:56.101Z,39.11
2022-08-14T10:52:56.373Z,39.61
2022-08-14T10:53:56.943Z,39.23
2022-08-14T10:54:57.009Z,39.94
2022-08-14T10:55:57.176Z,40.35
2022-08-14T10:56:57.400Z,40.64
2022-08-14T10:57:57.641Z,40.23
2022-08-14T10:58:57.956Z,40.43
2022-08-14T10:59:58.173Z,40.31
2022-08-14T11:00:58.444Z,41.00
2022-08-14T11:01:58.638Z,39.33
2022-08-14T11:02:59.066Z,39.72
2022-08-14T11:03:59.180Z,40.01
2022-08-14T11:05:01.100Z,40.21
2022-08-14T11:06:00.797Z,40.09
2022-08-14T11:07:00.066Z,40.11
2022-08-14T11:08:00.335Z,40.19
2022-08-14T11:09:00.559Z,40.01
2022-08-14T11:10:00.776Z,41.41
2022-08-14T11:11:01.188Z,41.21
2022-08-14T11:12:33.770Z,41.43
2022-08-14T11:13:02.699Z,41.92
2022-08-14T11:14:01.991Z,41.41
2022-08-14T11:15:03.005Z,41.72
2022-08-14T11:16:02.620Z,41.92
2022-08-14T11:17:02.834Z,41.92
2022-08-14T11:18:03.213Z,42.41
2022-08-14T11:19:03.493Z,41.11
2022-08-14T11:20:03.738Z,41.31
2022-08-14T11:21:04.078Z,41.63
2022-08-14T11:22:04.361Z,41.63
2022-08-14T11:23:05.087Z,41.92
2022-08-14T11:24:50.479Z,41.61
2022-08-14T11:25:06.579Z,41.31
2022-08-14T11:26:07.156Z,41.00
2022-08-14T11:27:05.738Z,40.92
2022-08-14T11:28:05.971Z,41.61
2022-08-14T11:29:07.321Z,41.29
2022-08-14T11:30:50.981Z,40.80
2022-08-14T11:31:07.934Z,41.47
2022-08-14T11:32:07.299Z,40.68
2022-08-14T11:33:07.525Z,39.78
2022-08-14T11:34:10.418Z,39.78
2022-08-14T11:35:09.149Z,40.27
2022-08-14T11:36:17.128Z,41.55
2022-08-14T11:37:23.531Z,40.16
2022-08-14T11:38:10.012Z,39.86
2022-08-14T11:39:10.658Z,40.64
2022-08-14T11:40:09.598Z,40.16
2022-08-14T11:41:09.863Z,42.31
2022-08-14T11:42:58.038Z,39.54
2022-08-14T11:43:11.754Z,39.35
2022-08-14T11:44:17.652Z,39.37
2022-08-14T11:45:17.167Z,38.98
2022-08-14T11:46:17.913Z,39.76
2022-08-14T11:47:12.556Z,39.47
2022-08-14T11:48:59.190Z,38.68
2022-08-14T11:49:18.531Z,38.90
2022-08-14T11:50:13.486Z,38.78
2022-08-14T11:51:12.950Z,39.47
2022-08-14T11:52:13.147Z,39.74
2022-08-14T11:53:13.555Z,38.47
2022-08-14T11:54:13.615Z,38.57
2022-08-14T11:55:14.928Z,38.98
2022-08-14T11:56:14.297Z,39.17
2022-08-14T11:57:14.586Z,39.39
2022-08-14T11:58:15.652Z,38.98
2022-08-14T11:59:16.132Z,39.19
2022-08-14T12:00:19.691Z,39.29
2022-08-14T12:01:15.754Z,39.01
2022-08-14T12:03:01.837Z,40.39
2022-08-14T12:03:27.152Z,39.31
2022-08-14T12:04:31.838Z,39.51
2022-08-14T12:05:17.772Z,39.39
2022-08-14T12:06:28.768Z,39.56
2022-08-14T12:07:18.355Z,39.47
2022-08-14T12:08:24.290Z,37.98
2022-08-14T12:09:22.393Z,38.18
2022-08-14T12:11:27.734Z,39.06
2022-08-14T12:12:35.874Z,38.49
2022-08-14T12:13:29.226Z,38.49
2022-08-14T12:14:34.931Z,39.76
2022-08-14T12:15:29.766Z,38.39
2022-08-14T12:16:29.008Z,38.49
2022-08-14T12:17:29.235Z,39.07
2022-08-14T12:18:30.521Z,39.07
2022-08-14T12:19:33.502Z,38.29
2022-08-14T12:20:32.606Z,38.98
2022-08-14T12:21:32.259Z,38.29
2022-08-14T12:23:32.958Z,39.47
2022-08-14T12:24:36.902Z,38.96
2022-08-14T12:25:34.862Z,38.47
2022-08-14T12:26:41.057Z,37.59
2022-08-14T12:27:35.053Z,38.35
2022-08-14T12:28:59.639Z,37.67
2022-08-14T12:29:35.709Z,37.08
2022-08-14T12:30:42.511Z,36.88
2022-08-14T12:31:44.508Z,37.77
2022-08-14T12:32:36.504Z,37.77
2022-08-14T12:33:35.771Z,37.95
2022-08-14T12:34:36.084Z,37.65
2022-08-14T12:35:36.301Z,36.87
2022-08-14T12:36:36.602Z,38.63
2022-08-14T12:37:36.902Z,37.85
2022-08-14T12:38:37.269Z,37.35
2022-08-14T12:39:39.635Z,36.57
2022-08-14T12:40:37.886Z,38.73
2022-08-14T12:41:38.237Z,36.67
2022-08-14T12:42:41.808Z,37.47
2022-08-14T12:43:39.753Z,37.08
2022-08-14T12:44:39.175Z,37.57
2022-08-14T12:45:39.346Z,37.79
2022-08-14T12:46:39.679Z,37.77
2022-08-14T12:47:39.977Z,38.35
2022-08-14T12:48:40.187Z,37.47
2022-08-14T12:49:50.399Z,37.98
2022-08-14T12:50:40.795Z,37.39
2022-08-14T12:51:42.716Z,38.08
2022-08-14T12:52:54.240Z,38.06
2022-08-14T12:53:42.761Z,39.92
2022-08-14T12:54:57.270Z,35.52
2022-08-14T12:56:17.908Z,36.59
2022-08-14T12:56:43.628Z,36.69
2022-08-14T12:57:43.688Z,37.08
2022-08-14T12:58:52.061Z,36.49